Weather at Torsby Airport

Public forecast

Using degrees Celsius for public forecast. Weather courtesy of forecast.io.

Current aviation weather report (METAR) for Torsby Airport

Retrieved 2021/10/27 05:20 UTC (33 minutes ago):

ESST 270520Z AUTO 15008KT 9000 -RA ///////// 08/08 Q0999 REUP

Closest aviation forecast (TAF) to Torsby Airport

Forecast is more than 12 hours old.

Closest forecast is Karlstad Airport, 44.1 nm (81.6 km) SSE. Retrieved 2017/05/22 06:33 UTC (4 years ago):

TAF ESOK 220530Z 2206/2224 28006KT CAVOK